sensor_id;sensor_type;location;lat;lon;timestamp;temperature;humidity
7341;DHT22;6870;50.944;6.932;2024-01-10T00:01:29;17.60;41.10
7341;DHT22;6870;50.944;6.932;2024-01-10T00:03:57;17.70;41.50
7341;DHT22;6870;50.944;6.932;2024-01-10T00:06:25;17.70;41.20
7341;DHT22;6870;50.944;6.932;2024-01-10T00:08:53;17.60;41.20
7341;DHT22;6870;50.944;6.932;2024-01-10T00:11:21;17.50;41.50
7341;DHT22;6870;50.944;6.932;2024-01-10T00:13:50;17.70;41.50
7341;DHT22;6870;50.944;6.932;2024-01-10T00:16:19;17.50;41.40
7341;DHT22;6870;50.944;6.932;2024-01-10T00:18:47;17.80;42.00
7341;DHT22;6870;50.944;6.932;2024-01-10T00:21:15;17.70;41.80
7341;DHT22;6870;50.944;6.932;2024-01-10T00:23:43;17.50;41.90
7341;DHT22;6870;50.944;6.932;2024-01-10T00:26:11;17.90;42.50
7341;DHT22;6870;50.944;6.932;2024-01-10T00:28:39;17.60;42.30
7341;DHT22;6870;50.944;6.932;2024-01-10T00:31:09;17.60;42.20
7341;DHT22;6870;50.944;6.932;2024-01-10T00:33:37;17.60;42.30
7341;DHT22;6870;50.944;6.932;2024-01-10T00:36:06;17.70;42.40
7341;DHT22;6870;50.944;6.932;2024-01-10T00:38:34;17.70;42.50
7341;DHT22;6870;50.944;6.932;2024-01-10T00:41:02;17.70;42.40
7341;DHT22;6870;50.944;6.932;2024-01-10T00:43:30;17.90;42.70
7341;DHT22;6870;50.944;6.932;2024-01-10T00:45:58;17.70;42.50
7341;DHT22;6870;50.944;6.932;2024-01-10T00:48:28;17.70;42.50
7341;DHT22;6870;50.944;6.932;2024-01-10T00:50:56;17.50;42.40
7341;DHT22;6870;50.944;6.932;2024-01-10T00:53:24;17.50;42.30
7341;DHT22;6870;50.944;6.932;2024-01-10T00:55:52;17.50;42.70
7341;DHT22;6870;50.944;6.932;2024-01-10T00:58:20;17.70;42.90
7341;DHT22;6870;50.944;6.932;2024-01-10T01:00:48;17.70;43.00
7341;DHT22;6870;50.944;6.932;2024-01-10T01:03:16;17.70;42.60
7341;DHT22;6870;50.944;6.932;2024-01-10T01:05:45;17.80;43.10
7341;DHT22;6870;50.944;6.932;2024-01-10T01:08:13;17.80;43.20
7341;DHT22;6870;50.944;6.932;2024-01-10T01:10:42;17.60;43.30
7341;DHT22;6870;50.944;6.932;2024-01-10T01:13:10;17.50;42.80
7341;DHT22;6870;50.944;6.932;2024-01-10T01:15:38;17.50;42.50
7341;DHT22;6870;50.944;6.932;2024-01-10T01:18:06;17.60;43.40
7341;DHT22;6870;50.944;6.932;2024-01-10T01:20:36;17.80;43.60
7341;DHT22;6870;50.944;6.932;2024-01-10T01:23:06;17.40;42.80
7341;DHT22;6870;50.944;6.932;2024-01-10T01:25:34;17.30;43.40
7341;DHT22;6870;50.944;6.932;2024-01-10T01:28:02;17.50;43.40
7341;DHT22;6870;50.944;6.932;2024-01-10T01:30:30;17.60;42.70
7341;DHT22;6870;50.944;6.932;2024-01-10T01:32:58;17.20;43.50
7341;DHT22;6870;50.944;6.932;2024-01-10T01:35:26;17.20;43.60
7341;DHT22;6870;50.944;6.932;2024-01-10T01:37:54;17.30;43.00
7341;DHT22;6870;50.944;6.932;2024-01-10T01:40:24;17.60;44.00
7341;DHT22;6870;50.944;6.932;2024-01-10T01:42:52;17.30;42.80
7341;DHT22;6870;50.944;6.932;2024-01-10T01:45:20;17.20;42.60
7341;DHT22;6870;50.944;6.932;2024-01-10T01:47:49;17.50;43.30
7341;DHT22;6870;50.944;6.932;2024-01-10T01:50:17;17.30;42.10
7341;DHT22;6870;50.944;6.932;2024-01-10T01:52:46;17.50;44.10
7341;DHT22;6870;50.944;6.932;2024-01-10T01:55:14;17.10;43.70
7341;DHT22;6870;50.944;6.932;2024-01-10T01:57:43;17.40;44.10
7341;DHT22;6870;50.944;6.932;2024-01-10T02:00:12;17.30;44.00
7341;DHT22;6870;50.944;6.932;2024-01-10T02:02:42;17.60;44.30
7341;DHT22;6870;50.944;6.932;2024-01-10T02:05:10;17.20;42.50
7341;DHT22;6870;50.944;6.932;2024-01-10T02:07:40;17.40;44.20
7341;DHT22;6870;50.944;6.932;2024-01-10T02:10:09;17.20;44.00
7341;DHT22;6870;50.944;6.932;2024-01-10T02:12:37;17.30;44.10
7341;DHT22;6870;50.944;6.932;2024-01-10T02:15:07;17.30;44.10
7341;DHT22;6870;50.944;6.932;2024-01-10T02:17:35;17.50;43.00
7341;DHT22;6870;50.944;6.932;2024-01-10T02:20:10;17.30;44.10
7341;DHT22;6870;50.944;6.932;2024-01-10T02:22:39;17.40;43.30
7341;DHT22;6870;50.944;6.932;2024-01-10T02:25:09;17.10;43.70
7341;DHT22;6870;50.944;6.932;2024-01-10T02:27:37;17.40;43.60
7341;DHT22;6870;50.944;6.932;2024-01-10T02:30:07;17.50;44.70
7341;DHT22;6870;50.944;6.932;2024-01-10T02:32:37;17.30;44.60
7341;DHT22;6870;50.944;6.932;2024-01-10T02:35:07;17.30;43.50
7341;DHT22;6870;50.944;6.932;2024-01-10T02:37:35;17.30;44.60
7341;DHT22;6870;50.944;6.932;2024-01-10T02:40:04;17.00;44.40
7341;DHT22;6870;50.944;6.932;2024-01-10T02:42:35;17.10;44.60
7341;DHT22;6870;50.944;6.932;2024-01-10T02:45:03;17.20;44.30
7341;DHT22;6870;50.944;6.932;2024-01-10T02:47:32;17.40;45.00
7341;DHT22;6870;50.944;6.932;2024-01-10T02:50:00;17.30;44.10
7341;DHT22;6870;50.944;6.932;2024-01-10T02:52:28;17.20;44.50
7341;DHT22;6870;50.944;6.932;2024-01-10T02:54:56;17.20;45.10
7341;DHT22;6870;50.944;6.932;2024-01-10T02:57:24;17.50;45.40
7341;DHT22;6870;50.944;6.932;2024-01-10T02:59:55;17.40;45.20
7341;DHT22;6870;50.944;6.932;2024-01-10T03:02:23;17.20;44.40
7341;DHT22;6870;50.944;6.932;2024-01-10T03:04:51;17.30;44.90
7341;DHT22;6870;50.944;6.932;2024-01-10T03:07:19;17.20;45.20
7341;DHT22;6870;50.944;6.932;2024-01-10T03:09:47;17.40;45.40
7341;DHT22;6870;50.944;6.932;2024-01-10T03:12:15;17.20;45.50
7341;DHT22;6870;50.944;6.932;2024-01-10T03:14:44;17.30;45.00
7341;DHT22;6870;50.944;6.932;2024-01-10T03:17:13;17.10;45.30
7341;DHT22;6870;50.944;6.932;2024-01-10T03:19:42;17.20;45.40
7341;DHT22;6870;50.944;6.932;2024-01-10T03:22:11;17.30;44.90
7341;DHT22;6870;50.944;6.932;2024-01-10T03:24:40;17.20;45.40
7341;DHT22;6870;50.944;6.932;2024-01-10T03:27:08;17.10;44.70
7341;DHT22;6870;50.944;6.932;2024-01-10T03:29:36;16.90;45.00
7341;DHT22;6870;50.944;6.932;2024-01-10T03:32:04;16.90;44.70
7341;DHT22;6870;50.944;6.932;2024-01-10T03:34:34;17.20;45.10
7341;DHT22;6870;50.944;6.932;2024-01-10T03:37:03;17.10;45.00
7341;DHT22;6870;50.944;6.932;2024-01-10T03:39:32;17.20;46.50
7341;DHT22;6870;50.944;6.932;2024-01-10T03:42:00;17.20;45.50
7341;DHT22;6870;50.944;6.932;2024-01-10T03:44:28;17.30;46.00
7341;DHT22;6870;50.944;6.932;2024-01-10T03:46:56;17.20;45.10
7341;DHT22;6870;50.944;6.932;2024-01-10T03:49:24;17.10;45.00
7341;DHT22;6870;50.944;6.932;2024-01-10T03:51:54;17.40;46.30
7341;DHT22;6870;50.944;6.932;2024-01-10T03:54:22;16.90;45.90
7341;DHT22;6870;50.944;6.932;2024-01-10T03:56:50;17.20;46.20
7341;DHT22;6870;50.944;6.932;2024-01-10T03:59:18;17.20;45.90
7341;DHT22;6870;50.944;6.932;2024-01-10T04:01:46;16.90;45.90
7341;DHT22;6870;50.944;6.932;2024-01-10T04:04:14;17.20;45.80
7341;DHT22;6870;50.944;6.932;2024-01-10T04:06:42;17.30;45.50
7341;DHT22;6870;50.944;6.932;2024-01-10T04:09:11;17.10;46.20
7341;DHT22;6870;50.944;6.932;2024-01-10T04:11:39;17.20;45.50
7341;DHT22;6870;50.944;6.932;2024-01-10T04:14:07;17.30;46.50
7341;DHT22;6870;50.944;6.932;2024-01-10T04:16:35;17.20;46.20
7341;DHT22;6870;50.944;6.932;2024-01-10T04:19:03;17.10;45.90
7341;DHT22;6870;50.944;6.932;2024-01-10T04:21:32;17.00;45.40
7341;DHT22;6870;50.944;6.932;2024-01-10T04:24:00;16.90;46.10
7341;DHT22;6870;50.944;6.932;2024-01-10T04:26:29;17.10;46.30
7341;DHT22;6870;50.944;6.932;2024-01-10T04:28:58;17.00;45.80
7341;DHT22;6870;50.944;6.932;2024-01-10T04:31:27;17.00;45.90
7341;DHT22;6870;50.944;6.932;2024-01-10T04:33:55;17.10;46.50
7341;DHT22;6870;50.944;6.932;2024-01-10T04:36:23;17.20;45.90
7341;DHT22;6870;50.944;6.932;2024-01-10T04:38:51;17.00;46.40
7341;DHT22;6870;50.944;6.932;2024-01-10T04:41:19;17.30;46.10
7341;DHT22;6870;50.944;6.932;2024-01-10T04:43:49;17.10;46.80
7341;DHT22;6870;50.944;6.932;2024-01-10T04:46:17;17.20;46.90
7341;DHT22;6870;50.944;6.932;2024-01-10T04:48:45;16.90;46.20
7341;DHT22;6870;50.944;6.932;2024-01-10T04:51:13;17.00;46.70
7341;DHT22;6870;50.944;6.932;2024-01-10T04:53:41;17.20;46.40
7341;DHT22;6870;50.944;6.932;2024-01-10T04:56:09;17.30;46.70
7341;DHT22;6870;50.944;6.932;2024-01-10T04:58:38;17.20;46.50
7341;DHT22;6870;50.944;6.932;2024-01-10T05:01:07;17.30;46.40
7341;DHT22;6870;50.944;6.932;2024-01-10T05:03:35;17.10;46.30
7341;DHT22;6870;50.944;6.932;2024-01-10T05:06:04;17.10;46.50
7341;DHT22;6870;50.944;6.932;2024-01-10T05:08:34;17.10;46.80
7341;DHT22;6870;50.944;6.932;2024-01-10T05:11:02;17.30;47.10
7341;DHT22;6870;50.944;6.932;2024-01-10T05:13:30;17.10;46.90
7341;DHT22;6870;50.944;6.932;2024-01-10T05:15:58;17.00;46.60
7341;DHT22;6870;50.944;6.932;2024-01-10T05:18:28;17.00;46.90
7341;DHT22;6870;50.944;6.932;2024-01-10T05:20:56;17.30;47.40
7341;DHT22;6870;50.944;6.932;2024-01-10T05:23:24;17.10;46.90
7341;DHT22;6870;50.944;6.932;2024-01-10T05:25:54;17.40;47.40
7341;DHT22;6870;50.944;6.932;2024-01-10T05:28:22;17.10;47.00
7341;DHT22;6870;50.944;6.932;2024-01-10T05:30:50;15.90;34.00
7341;DHT22;6870;50.944;6.932;2024-01-10T05:33:18;15.10;33.30
7341;DHT22;6870;50.944;6.932;2024-01-10T05:35:48;14.30;32.40
7341;DHT22;6870;50.944;6.932;2024-01-10T05:38:16;13.80;31.60
7341;DHT22;6870;50.944;6.932;2024-01-10T05:40:44;13.50;31.50
7341;DHT22;6870;50.944;6.932;2024-01-10T05:43:13;13.30;40.50
7341;DHT22;6870;50.944;6.932;2024-01-10T05:45:42;14.60;40.70
7341;DHT22;6870;50.944;6.932;2024-01-10T05:48:10;15.50;40.20
7341;DHT22;6870;50.944;6.932;2024-01-10T05:50:38;15.70;38.70
7341;DHT22;6870;50.944;6.932;2024-01-10T05:53:08;16.00;37.60
7341;DHT22;6870;50.944;6.932;2024-01-10T05:55:37;16.30;36.40
7341;DHT22;6870;50.944;6.932;2024-01-10T05:58:05;16.20;36.40
7341;DHT22;6870;50.944;6.932;2024-01-10T06:00:33;16.60;35.90
7341;DHT22;6870;50.944;6.932;2024-01-10T06:03:01;16.70;35.80
7341;DHT22;6870;50.944;6.932;2024-01-10T06:05:29;16.50;35.20
7341;DHT22;6870;50.944;6.932;2024-01-10T06:07:58;16.70;35.10
7341;DHT22;6870;50.944;6.932;2024-01-10T06:10:27;16.90;35.30
7341;DHT22;6870;50.944;6.932;2024-01-10T06:12:56;16.60;34.90
7341;DHT22;6870;50.944;6.932;2024-01-10T06:15:24;16.80;34.30
7341;DHT22;6870;50.944;6.932;2024-01-10T06:17:52;16.80;34.20
7341;DHT22;6870;50.944;6.932;2024-01-10T06:20:20;16.80;35.00
7341;DHT22;6870;50.944;6.932;2024-01-10T06:22:48;17.10;34.40
7341;DHT22;6870;50.944;6.932;2024-01-10T06:25:16;17.00;34.80
7341;DHT22;6870;50.944;6.932;2024-01-10T06:27:46;16.80;33.80
7341;DHT22;6870;50.944;6.932;2024-01-10T06:30:14;17.00;34.60
7341;DHT22;6870;50.944;6.932;2024-01-10T06:32:42;17.10;34.70
7341;DHT22;6870;50.944;6.932;2024-01-10T06:35:10;17.00;34.70
7341;DHT22;6870;50.944;6.932;2024-01-10T06:37:38;16.90;34.40
7341;DHT22;6870;50.944;6.932;2024-01-10T06:40:07;16.90;34.00
7341;DHT22;6870;50.944;6.932;2024-01-10T06:42:38;17.20;34.60
7341;DHT22;6870;50.944;6.932;2024-01-10T06:45:08;17.10;34.10
7341;DHT22;6870;50.944;6.932;2024-01-10T06:47:38;17.20;34.40
7341;DHT22;6870;50.944;6.932;2024-01-10T06:50:09;17.00;34.20
7341;DHT22;6870;50.944;6.932;2024-01-10T06:52:38;17.20;34.30
7341;DHT22;6870;50.944;6.932;2024-01-10T06:55:07;17.00;34.00
7341;DHT22;6870;50.944;6.932;2024-01-10T06:57:35;17.20;34.20
7341;DHT22;6870;50.944;6.932;2024-01-10T07:00:05;17.00;34.30
7341;DHT22;6870;50.944;6.932;2024-01-10T07:02:37;17.00;34.30
7341;DHT22;6870;50.944;6.932;2024-01-10T07:05:07;17.10;34.70
7341;DHT22;6870;50.944;6.932;2024-01-10T07:07:36;16.90;34.80
7341;DHT22;6870;50.944;6.932;2024-01-10T07:10:05;17.20;34.60
7341;DHT22;6870;50.944;6.932;2024-01-10T07:12:33;16.90;35.00
7341;DHT22;6870;50.944;6.932;2024-01-10T07:15:02;17.10;35.30
7341;DHT22;6870;50.944;6.932;2024-01-10T07:17:32;17.20;35.50
7341;DHT22;6870;50.944;6.932;2024-01-10T07:20:00;17.10;35.50
7341;DHT22;6870;50.944;6.932;2024-01-10T07:22:30;16.90;35.50
7341;DHT22;6870;50.944;6.932;2024-01-10T07:24:58;17.10;35.70
7341;DHT22;6870;50.944;6.932;2024-01-10T07:27:26;17.20;35.20
7341;DHT22;6870;50.944;6.932;2024-01-10T07:29:57;17.20;36.00
7341;DHT22;6870;50.944;6.932;2024-01-10T07:33:10;17.30;35.90
7341;DHT22;6870;50.944;6.932;2024-01-10T07:35:39;17.10;36.10
7341;DHT22;6870;50.944;6.932;2024-01-10T07:38:07;17.10;36.20
7341;DHT22;6870;50.944;6.932;2024-01-10T07:40:36;16.90;36.10
7341;DHT22;6870;50.944;6.932;2024-01-10T07:43:04;17.20;36.30
7341;DHT22;6870;50.944;6.932;2024-01-10T07:45:52;17.00;35.50
7341;DHT22;6870;50.944;6.932;2024-01-10T07:48:40;17.30;36.50
7341;DHT22;6870;50.944;6.932;2024-01-10T07:51:09;17.10;35.60
7341;DHT22;6870;50.944;6.932;2024-01-10T07:53:37;16.70;35.90
7341;DHT22;6870;50.944;6.932;2024-01-10T07:56:05;17.20;36.30
7341;DHT22;6870;50.944;6.932;2024-01-10T07:58:34;17.20;36.40
7341;DHT22;6870;50.944;6.932;2024-01-10T08:01:02;17.10;35.50
7341;DHT22;6870;50.944;6.932;2024-01-10T08:03:31;17.20;36.10
7341;DHT22;6870;50.944;6.932;2024-01-10T08:06:02;17.10;35.90
7341;DHT22;6870;50.944;6.932;2024-01-10T08:08:34;17.30;35.10
7341;DHT22;6870;50.944;6.932;2024-01-10T08:11:02;17.20;35.70
7341;DHT22;6870;50.944;6.932;2024-01-10T08:13:30;17.20;35.60
7341;DHT22;6870;50.944;6.932;2024-01-10T08:15:58;17.10;34.90
7341;DHT22;6870;50.944;6.932;2024-01-10T08:18:26;17.30;35.20
7341;DHT22;6870;50.944;6.932;2024-01-10T08:20:55;17.20;35.40
7341;DHT22;6870;50.944;6.932;2024-01-10T08:23:24;17.30;35.40
7341;DHT22;6870;50.944;6.932;2024-01-10T08:25:52;17.10;35.10
7341;DHT22;6870;50.944;6.932;2024-01-10T08:28:22;17.20;35.20
7341;DHT22;6870;50.944;6.932;2024-01-10T08:30:50;17.10;34.70
7341;DHT22;6870;50.944;6.932;2024-01-10T08:33:17;17.30;35.20
7341;DHT22;6870;50.944;6.932;2024-01-10T08:35:45;17.20;35.20
7341;DHT22;6870;50.944;6.932;2024-01-10T08:38:13;17.20;35.10
7341;DHT22;6870;50.944;6.932;2024-01-10T08:40:43;17.10;34.90
7341;DHT22;6870;50.944;6.932;2024-01-10T08:43:11;17.10;34.90
7341;DHT22;6870;50.944;6.932;2024-01-10T08:45:39;17.30;34.30
7341;DHT22;6870;50.944;6.932;2024-01-10T08:48:07;17.10;34.70
7341;DHT22;6870;50.944;6.932;2024-01-10T08:50:36;17.00;34.50
7341;DHT22;6870;50.944;6.932;2024-01-10T08:53:05;17.00;33.40
7341;DHT22;6870;50.944;6.932;2024-01-10T08:55:34;17.20;34.40
7341;DHT22;6870;50.944;6.932;2024-01-10T08:58:05;17.20;34.30
7341;DHT22;6870;50.944;6.932;2024-01-10T09:00:33;17.20;34.00
7341;DHT22;6870;50.944;6.932;2024-01-10T09:03:02;17.50;33.20
7341;DHT22;6870;50.944;6.932;2024-01-10T09:05:30;17.50;31.70
7341;DHT22;6870;50.944;6.932;2024-01-10T09:07:59;17.70;29.90
7341;DHT22;6870;50.944;6.932;2024-01-10T09:10:27;17.80;31.60
7341;DHT22;6870;50.944;6.932;2024-01-10T09:12:58;17.70;31.50
7341;DHT22;6870;50.944;6.932;2024-01-10T09:15:28;17.80;31.70
7341;DHT22;6870;50.944;6.932;2024-01-10T09:17:56;17.90;31.90
7341;DHT22;6870;50.944;6.932;2024-01-10T09:20:24;18.20;31.50
7341;DHT22;6870;50.944;6.932;2024-01-10T09:22:52;17.80;31.80
7341;DHT22;6870;50.944;6.932;2024-01-10T09:25:21;17.70;31.90
7341;DHT22;6870;50.944;6.932;2024-01-10T09:27:49;17.70;31.80
7341;DHT22;6870;50.944;6.932;2024-01-10T09:30:17;18.20;32.50
7341;DHT22;6870;50.944;6.932;2024-01-10T09:32:47;18.20;31.90
7341;DHT22;6870;50.944;6.932;2024-01-10T09:35:15;18.40;31.40
7341;DHT22;6870;50.944;6.932;2024-01-10T09:37:45;18.10;32.00
7341;DHT22;6870;50.944;6.932;2024-01-10T09:40:14;18.60;32.30
7341;DHT22;6870;50.944;6.932;2024-01-10T09:42:44;18.30;31.90
7341;DHT22;6870;50.944;6.932;2024-01-10T09:45:12;18.20;31.70
7341;DHT22;6870;50.944;6.932;2024-01-10T09:47:42;18.70;30.90
7341;DHT22;6870;50.944;6.932;2024-01-10T09:50:12;18.50;31.80
7341;DHT22;6870;50.944;6.932;2024-01-10T09:52:43;18.60;30.70
7341;DHT22;6870;50.944;6.932;2024-01-10T09:55:14;18.60;31.80
7341;DHT22;6870;50.944;6.932;2024-01-10T09:57:43;18.50;31.50
7341;DHT22;6870;50.944;6.932;2024-01-10T10:00:14;18.60;31.50
7341;DHT22;6870;50.944;6.932;2024-01-10T10:02:45;18.80;31.50
7341;DHT22;6870;50.944;6.932;2024-01-10T10:05:17;19.00;31.50
7341;DHT22;6870;50.944;6.932;2024-01-10T10:07:46;19.00;31.10
7341;DHT22;6870;50.944;6.932;2024-01-10T10:10:16;19.00;31.10
7341;DHT22;6870;50.944;6.932;2024-01-10T10:12:45;18.90;30.80
7341;DHT22;6870;50.944;6.932;2024-01-10T10:15:16;19.10;30.70
7341;DHT22;6870;50.944;6.932;2024-01-10T10:17:46;19.00;30.50
7341;DHT22;6870;50.944;6.932;2024-01-10T10:20:21;19.00;30.40
7341;DHT22;6870;50.944;6.932;2024-01-10T10:23:00;19.10;30.40
7341;DHT22;6870;50.944;6.932;2024-01-10T10:25:30;19.20;30.20
7341;DHT22;6870;50.944;6.932;2024-01-10T10:28:00;19.30;29.90
7341;DHT22;6870;50.944;6.932;2024-01-10T10:30:31;19.40;29.70
7341;DHT22;6870;50.944;6.932;2024-01-10T10:33:00;19.20;29.10
7341;DHT22;6870;50.944;6.932;2024-01-10T10:35:32;19.50;29.20
7341;DHT22;6870;50.944;6.932;2024-01-10T10:38:08;19.40;29.10
7341;DHT22;6870;50.944;6.932;2024-01-10T10:40:37;19.20;28.80
7341;DHT22;6870;50.944;6.932;2024-01-10T10:43:12;19.20;28.50
7341;DHT22;6870;50.944;6.932;2024-01-10T10:45:44;19.40;28.80
7341;DHT22;6870;50.944;6.932;2024-01-10T10:48:17;19.10;28.50
7341;DHT22;6870;50.944;6.932;2024-01-10T10:50:59;19.20;28.60
7341;DHT22;6870;50.944;6.932;2024-01-10T10:53:34;19.20;28.70
7341;DHT22;6870;50.944;6.932;2024-01-10T10:56:04;19.00;28.60
7341;DHT22;6870;50.944;6.932;2024-01-10T10:58:35;19.50;28.70
7341;DHT22;6870;50.944;6.932;2024-01-10T11:01:05;19.60;28.70
7341;DHT22;6870;50.944;6.932;2024-01-10T11:03:35;19.60;28.70
7341;DHT22;6870;50.944;6.932;2024-01-10T11:06:06;19.90;28.60
7341;DHT22;6870;50.944;6.932;2024-01-10T11:08:38;19.60;27.80
7341;DHT22;6870;50.944;6.932;2024-01-10T11:11:17;19.60;26.90
7341;DHT22;6870;50.944;6.932;2024-01-10T11:14:15;20.00;27.20
7341;DHT22;6870;50.944;6.932;2024-01-10T11:20:14;20.50;26.80
7341;DHT22;6870;50.944;6.932;2024-01-10T11:23:14;20.50;26.50
7341;DHT22;6870;50.944;6.932;2024-01-10T11:26:04;20.70;26.20
7341;DHT22;6870;50.944;6.932;2024-01-10T11:28:33;20.70;25.40
7341;DHT22;6870;50.944;6.932;2024-01-10T11:31:02;20.60;25.20
7341;DHT22;6870;50.944;6.932;2024-01-10T11:33:32;20.90;25.60
7341;DHT22;6870;50.944;6.932;2024-01-10T11:36:11;20.40;24.80
7341;DHT22;6870;50.944;6.932;2024-01-10T11:38:49;20.60;25.40
7341;DHT22;6870;50.944;6.932;2024-01-10T11:41:21;20.80;25.70
7341;DHT22;6870;50.944;6.932;2024-01-10T11:44:28;20.30;25.10
7341;DHT22;6870;50.944;6.932;2024-01-10T11:46:58;20.70;25.40
7341;DHT22;6870;50.944;6.932;2024-01-10T11:49:26;20.50;25.30
7341;DHT22;6870;50.944;6.932;2024-01-10T11:51:56;20.10;24.90
7341;DHT22;6870;50.944;6.932;2024-01-10T11:54:41;20.50;25.30
7341;DHT22;6870;50.944;6.932;2024-01-10T11:57:21;20.50;25.20
7341;DHT22;6870;50.944;6.932;2024-01-10T11:59:53;20.00;24.60
7341;DHT22;6870;50.944;6.932;2024-01-10T12:02:23;20.40;25.60
7341;DHT22;6870;50.944;6.932;2024-01-10T12:04:52;20.00;25.20
7341;DHT22;6870;50.944;6.932;2024-01-10T12:07:21;20.00;26.00
7341;DHT22;6870;50.944;6.932;2024-01-10T12:09:52;19.70;25.90
7341;DHT22;6870;50.944;6.932;2024-01-10T12:12:21;20.10;26.60
7341;DHT22;6870;50.944;6.932;2024-01-10T12:14:50;20.40;26.20
7341;DHT22;6870;50.944;6.932;2024-01-10T12:17:19;20.60;25.80
7341;DHT22;6870;50.944;6.932;2024-01-10T12:19:47;20.70;25.10
7341;DHT22;6870;50.944;6.932;2024-01-10T12:22:16;20.80;24.50
7341;DHT22;6870;50.944;6.932;2024-01-10T12:24:47;20.90;23.90
7341;DHT22;6870;50.944;6.932;2024-01-10T12:27:19;21.10;24.20
7341;DHT22;6870;50.944;6.932;2024-01-10T12:29:50;21.00;23.90
7341;DHT22;6870;50.944;6.932;2024-01-10T12:32:21;20.80;23.40
7341;DHT22;6870;50.944;6.932;2024-01-10T12:34:54;21.30;23.90
7341;DHT22;6870;50.944;6.932;2024-01-10T12:37:25;20.90;23.20
7341;DHT22;6870;50.944;6.932;2024-01-10T12:39:53;21.20;23.20
7341;DHT22;6870;50.944;6.932;2024-01-10T12:42:24;21.20;22.80
7341;DHT22;6870;50.944;6.932;2024-01-10T12:44:53;21.20;22.30
7341;DHT22;6870;50.944;6.932;2024-01-10T12:47:21;21.10;22.20
7341;DHT22;6870;50.944;6.932;2024-01-10T12:49:50;21.10;23.70
7341;DHT22;6870;50.944;6.932;2024-01-10T12:52:19;20.90;22.70
7341;DHT22;6870;50.944;6.932;2024-01-10T12:54:50;20.60;23.00
7341;DHT22;6870;50.944;6.932;2024-01-10T12:57:19;21.00;23.80
7341;DHT22;6870;50.944;6.932;2024-01-10T12:59:48;20.40;23.90
7341;DHT22;6870;50.944;6.932;2024-01-10T13:02:16;20.90;24.10
7341;DHT22;6870;50.944;6.932;2024-01-10T13:04:45;20.50;24.30
7341;DHT22;6870;50.944;6.932;2024-01-10T13:07:13;20.20;24.70
7341;DHT22;6870;50.944;6.932;2024-01-10T13:09:45;20.20;25.00
7341;DHT22;6870;50.944;6.932;2024-01-10T13:12:13;20.00;24.60
7341;DHT22;6870;50.944;6.932;2024-01-10T13:14:41;20.20;24.70
7341;DHT22;6870;50.944;6.932;2024-01-10T13:17:10;20.30;25.10
7341;DHT22;6870;50.944;6.932;2024-01-10T13:19:38;20.50;25.00
7341;DHT22;6870;50.944;6.932;2024-01-10T13:22:07;20.50;24.90
7341;DHT22;6870;50.944;6.932;2024-01-10T13:24:36;20.50;25.30
7341;DHT22;6870;50.944;6.932;2024-01-10T13:27:04;20.40;25.40
7341;DHT22;6870;50.944;6.932;2024-01-10T13:29:32;20.40;25.30
7341;DHT22;6870;50.944;6.932;2024-01-10T13:32:02;20.60;25.00
7341;DHT22;6870;50.944;6.932;2024-01-10T13:34:31;20.30;24.10
7341;DHT22;6870;50.944;6.932;2024-01-10T13:37:00;20.90;24.20
7341;DHT22;6870;50.944;6.932;2024-01-10T13:39:29;20.70;23.70
7341;DHT22;6870;50.944;6.932;2024-01-10T13:41:57;20.70;23.50
7341;DHT22;6870;50.944;6.932;2024-01-10T13:44:25;20.70;24.50
7341;DHT22;6870;50.944;6.932;2024-01-10T13:46:53;20.50;24.30
7341;DHT22;6870;50.944;6.932;2024-01-10T13:49:21;20.10;24.20
7341;DHT22;6870;50.944;6.932;2024-01-10T13:51:50;20.60;24.80
7341;DHT22;6870;50.944;6.932;2024-01-10T13:54:18;20.50;25.30
7341;DHT22;6870;50.944;6.932;2024-01-10T13:56:48;20.30;25.50
7341;DHT22;6870;50.944;6.932;2024-01-10T13:59:16;20.00;25.10
7341;DHT22;6870;50.944;6.932;2024-01-10T14:01:44;19.80;25.40
7341;DHT22;6870;50.944;6.932;2024-01-10T14:04:12;20.10;25.50
7341;DHT22;6870;50.944;6.932;2024-01-10T14:06:40;20.10;26.00
7341;DHT22;6870;50.944;6.932;2024-01-10T14:09:10;20.20;26.00
7341;DHT22;6870;50.944;6.932;2024-01-10T14:11:39;19.90;25.80
7341;DHT22;6870;50.944;6.932;2024-01-10T14:14:07;19.70;25.90
7341;DHT22;6870;50.944;6.932;2024-01-10T14:16:35;19.70;25.80
7341;DHT22;6870;50.944;6.932;2024-01-10T14:19:03;19.60;26.40
7341;DHT22;6870;50.944;6.932;2024-01-10T14:21:31;19.70;26.10
7341;DHT22;6870;50.944;6.932;2024-01-10T14:23:59;19.80;26.10
7341;DHT22;6870;50.944;6.932;2024-01-10T14:26:30;19.60;26.60
7341;DHT22;6870;50.944;6.932;2024-01-10T14:28:58;19.70;26.40
7341;DHT22;6870;50.944;6.932;2024-01-10T14:31:26;20.00;26.90
7341;DHT22;6870;50.944;6.932;2024-01-10T14:34:09;20.00;26.80
7341;DHT22;6870;50.944;6.932;2024-01-10T14:36:38;19.80;26.60
7341;DHT22;6870;50.944;6.932;2024-01-10T14:39:06;19.70;26.40
7341;DHT22;6870;50.944;6.932;2024-01-10T14:41:36;19.70;26.60
7341;DHT22;6870;50.944;6.932;2024-01-10T14:44:04;19.70;26.50
7341;DHT22;6870;50.944;6.932;2024-01-10T14:46:32;20.30;26.30
7341;DHT22;6870;50.944;6.932;2024-01-10T14:49:00;19.80;25.70
7341;DHT22;6870;50.944;6.932;2024-01-10T14:51:29;20.00;26.00
7341;DHT22;6870;50.944;6.932;2024-01-10T14:53:57;20.00;25.90
7341;DHT22;6870;50.944;6.932;2024-01-10T14:56:25;20.10;25.40
7341;DHT22;6870;50.944;6.932;2024-01-10T14:58:55;20.50;25.70
7341;DHT22;6870;50.944;6.932;2024-01-10T15:01:23;20.70;25.50
7341;DHT22;6870;50.944;6.932;2024-01-10T15:03:51;20.80;25.40
7341;DHT22;6870;50.944;6.932;2024-01-10T15:06:19;20.90;25.20
7341;DHT22;6870;50.944;6.932;2024-01-10T15:08:49;20.90;24.50
7341;DHT22;6870;50.944;6.932;2024-01-10T15:11:18;20.70;23.80
7341;DHT22;6870;50.944;6.932;2024-01-10T15:13:47;21.00;24.10
7341;DHT22;6870;50.944;6.932;2024-01-10T15:16:17;20.90;23.70
7341;DHT22;6870;50.944;6.932;2024-01-10T15:18:47;20.70;22.80
7341;DHT22;6870;50.944;6.932;2024-01-10T15:21:15;21.00;23.10
7341;DHT22;6870;50.944;6.932;2024-01-10T15:23:44;20.80;22.70
7341;DHT22;6870;50.944;6.932;2024-01-10T15:26:15;20.80;22.00
7341;DHT22;6870;50.944;6.932;2024-01-10T15:28:45;21.00;23.60
7341;DHT22;6870;50.944;6.932;2024-01-10T15:31:17;20.90;24.00
7341;DHT22;6870;50.944;6.932;2024-01-10T15:33:45;20.40;23.50
7341;DHT22;6870;50.944;6.932;2024-01-10T15:36:14;20.50;24.30
7341;DHT22;6870;50.944;6.932;2024-01-10T15:38:43;20.10;24.10
7341;DHT22;6870;50.944;6.932;2024-01-10T15:41:11;20.10;25.20
7341;DHT22;6870;50.944;6.932;2024-01-10T15:43:39;19.90;24.10
7341;DHT22;6870;50.944;6.932;2024-01-10T15:46:07;19.80;24.90
7341;DHT22;6870;50.944;6.932;2024-01-10T15:48:36;19.60;24.90
7341;DHT22;6870;50.944;6.932;2024-01-10T15:51:05;19.70;25.00
7341;DHT22;6870;50.944;6.932;2024-01-10T15:53:33;19.80;25.50
7341;DHT22;6870;50.944;6.932;2024-01-10T15:56:01;19.50;25.00
7341;DHT22;6870;50.944;6.932;2024-01-10T15:58:31;19.70;25.70
7341;DHT22;6870;50.944;6.932;2024-01-10T16:01:00;19.60;25.50
7341;DHT22;6870;50.944;6.932;2024-01-10T16:03:28;19.60;25.70
7341;DHT22;6870;50.944;6.932;2024-01-10T16:05:57;19.30;26.00
7341;DHT22;6870;50.944;6.932;2024-01-10T16:08:26;19.20;25.90
7341;DHT22;6870;50.944;6.932;2024-01-10T16:10:54;19.40;26.20
7341;DHT22;6870;50.944;6.932;2024-01-10T16:13:22;19.10;26.00
7341;DHT22;6870;50.944;6.932;2024-01-10T16:15:53;19.20;26.60
7341;DHT22;6870;50.944;6.932;2024-01-10T16:18:22;19.10;26.00
7341;DHT22;6870;50.944;6.932;2024-01-10T16:20:50;19.00;26.50